Nivelles, Belgium
Current Conditions -  °F | °C
As of 8:50 PM on Wednesday 17 Dec 2014 (Local Time) from EBCI Reporting Station
Broken Clouds Broken Clouds  
Wind Chill: 50°   Ceiling: 1200
Heat Index: 50°   Visibility: 4mi
Dew Point: 48°   Wind: 9mph
Humidity: 94%   Direction: 240°WSW
Pressure: 29.83"   Gusts: NA
Location:  50.6°N, 4.33°E
Report Text: EBCI 171950Z 24008KT 6000 FEW005 BKN012 10/09 Q1010 TEMPO 4000 BKN004
Loading
Personal Weather Stations






























Interactive Weather Map New forecast layout! Learn more

10-Day Weather Forecast

Advertisements
Track Severe Weather on mobile